Time;durP1;ratioP1;P1;durP2;ratioP2;P2;SDS_P1;SDS_P2;PMS_P1;PMS_P2;Temp;Humidity;BMP_temperature;BMP_pressure;BME280_temperature;BME280_humidity;BME280_pressure;Samples;Min_cycle;Max_cycle;Signal;HPM_P1;HPM_P2
2022/08/11 00:00:11;;;;;;;0.10;0.10;;;18.80;99.90;;;;;;4902527;29;20056;-89
2022/08/11 00:02:41;;;;;;;0.32;0.32;;;18.80;99.90;;;;;;4914697;29;20422;-89
2022/08/11 00:05:20;;;;;;;0.00;0.00;;;18.80;99.90;;;;;;4891213;29;20135;-90
2022/08/11 00:07:53;;;;;;;0.00;0.00;;;18.70;99.90;;;;;;4918782;29;20091;-90
2022/08/11 00:10:28;;;;;;;0.13;0.13;;;18.70;99.90;;;;;;4902513;29;20471;-89
2022/08/11 00:13:04;;;;;;;0.65;0.10;;;17.80;99.90;;;;;;4910175;29;20151;-89
2022/08/11 00:15:40;;;;;;;0.30;0.10;;;18.60;99.90;;;;;;4914896;29;20102;-89
2022/08/11 00:18:08;;;;;;;0.20;0.10;;;18.60;99.90;;;;;;4901779;29;20654;-89
2022/08/11 00:20:38;;;;;;;0.20;0.20;;;18.50;99.90;;;;;;4886140;29;20071;-89
2022/08/11 00:23:13;;;;;;;0.13;0.08;;;18.50;99.90;;;;;;4902311;29;20110;-90
2022/08/11 00:25:44;;;;;;;0.30;0.10;;;18.40;99.90;;;;;;4909952;29;20044;-90
2022/08/11 00:28:32;;;;;;;0.10;0.10;;;18.40;99.90;;;;;;4900832;29;20058;-89
2022/08/11 00:31:03;;;;;;;0.40;0.20;;;17.50;99.90;;;;;;4914870;29;20054;-90
2022/08/11 00:33:37;;;;;;;0.15;0.10;;;17.30;99.90;;;;;;4901484;29;20471;-89
2022/08/11 00:36:05;;;;;;;0.10;0.10;;;18.10;99.90;;;;;;4912041;29;20044;-92
2022/08/11 00:38:34;;;;;;;0.15;0.15;;;18.10;99.90;;;;;;4917310;29;20054;-90
2022/08/11 00:41:08;;;;;;;0.00;0.00;;;18.10;99.90;;;;;;4918112;29;20070;-90
2022/08/11 00:43:48;;;;;;;0.10;0.10;;;18.10;99.90;;;;;;4899660;29;20457;-89
2022/08/11 00:46:26;;;;;;;0.00;0.00;;;18.10;99.90;;;;;;4904423;29;20048;-91
2022/08/11 00:49:08;;;;;;;0.10;0.10;;;18.00;99.90;;;;;;4917410;29;20107;-89
2022/08/11 00:51:43;;;;;;;0.10;0.10;;;18.00;99.90;;;;;;4912333;29;20051;-89
2022/08/11 00:54:38;;;;;;;0.05;0.05;;;18.00;99.90;;;;;;4901827;29;20047;-90
2022/08/11 00:57:45;;;;;;;0.17;0.13;;;17.90;99.90;;;;;;4871786;29;20055;-93
2022/08/11 01:00:12;;;;;;;0.08;0.08;;;17.80;99.90;;;;;;4822198;29;20141;-89
2022/08/11 01:02:58;;;;;;;0.00;0.00;;;17.80;99.90;;;;;;4900879;29;20051;-90
2022/08/11 01:05:47;;;;;;;0.15;0.15;;;17.80;99.90;;;;;;4917081;29;20083;-89
2022/08/11 01:08:12;;;;;;;0.00;0.00;;;17.70;99.90;;;;;;4899700;29;20047;-89
2022/08/11 01:11:09;;;;;;;0.00;0.00;;;17.70;99.90;;;;;;4917767;29;20044;-90
2022/08/11 01:14:08;;;;;;;0.80;0.15;;;17.60;99.90;;;;;;4901820;29;20046;-90
2022/08/11 01:17:07;;;;;;;0.00;0.00;;;17.60;99.90;;;;;;4917147;29;20503;-90
2022/08/11 01:20:09;;;;;;;0.10;0.10;;;18.20;99.90;;;;;;4910785;29;20040;-90
2022/08/11 01:23:12;;;;;;;0.10;0.10;;;17.50;99.90;;;;;;4903359;29;20040;-90
2022/08/11 01:25:37;;;;;;;0.20;0.13;;;17.50;99.90;;;;;;4899339;29;20067;-90
2022/08/11 01:28:27;;;;;;;0.23;0.13;;;17.40;99.90;;;;;;4917920;29;20051;-90
2022/08/11 01:31:11;;;;;;;0.03;0.03;;;17.40;99.90;;;;;;4902181;29;20090;-90
2022/08/11 01:34:11;;;;;;;0.10;0.10;;;17.40;99.90;;;;;;4901820;29;20094;-90
2022/08/11 01:37:11;;;;;;;0.00;0.00;;;17.30;99.90;;;;;;4901499;29;20051;-90
2022/08/11 01:40:11;;;;;;;0.10;0.10;;;17.30;99.90;;;;;;4909277;29;20044;-91
2022/08/11 01:45:52;;;;;;;0.45;0.40;;;17.30;99.90;;;;;;4910909;29;20131;-90
2022/08/11 01:48:42;;;;;;;0.10;0.10;;;17.20;99.90;;;;;;4913521;29;20083;-90
2022/08/11 01:51:45;;;;;;;0.10;0.10;;;17.30;99.90;;;;;;4915868;29;20126;-90
2022/08/11 01:54:41;;;;;;;0.10;0.10;;;17.20;99.90;;;;;;4915824;29;20103;-89
2022/08/11 01:57:25;;;;;;;0.50;0.20;;;17.20;99.90;;;;;;4911056;29;20052;-91
2022/08/11 02:00:01;;;;;;;0.00;0.00;;;17.20;99.90;;;;;;4935185;29;20384;-90
2022/08/11 02:02:52;;;;;;;0.20;0.20;;;17.20;99.90;;;;;;4917912;29;20042;-89
2022/08/11 02:06:01;;;;;;;0.10;0.10;;;17.20;99.90;;;;;;4917742;29;20055;-90
2022/08/11 02:08:58;;;;;;;0.20;0.20;;;17.20;99.90;;;;;;4831015;29;20049;-90
2022/08/11 02:11:31;;;;;;;0.17;0.17;;;17.20;99.90;;;;;;4763359;29;20079;-90
2022/08/11 02:14:15;;;;;;;0.10;0.10;;;17.20;99.90;;;;;;4913272;29;20182;-90
2022/08/11 02:17:17;;;;;;;0.28;0.17;;;17.20;99.90;;;;;;4919975;29;20069;-90
2022/08/11 02:26:10;;;;;;;0.15;0.15;;;17.10;99.90;;;;;;4911617;29;20093;-89
2022/08/11 02:28:56;;;;;;;0.20;0.20;;;17.10;99.90;;;;;;4903486;29;20313;-89
2022/08/11 02:34:31;;;;;;;0.35;0.17;;;17.00;99.90;;;;;;4918738;29;20056;-92
2022/08/11 02:37:14;;;;;;;0.25;0.20;;;17.00;99.90;;;;;;4907911;29;20110;-89
2022/08/11 02:40:02;;;;;;;0.50;0.15;;;17.00;99.90;;;;;;4910618;29;20360;-89
2022/08/11 02:42:44;;;;;;;0.10;0.10;;;17.00;99.90;;;;;;4909161;29;20102;-89
2022/08/11 02:45:28;;;;;;;0.10;0.10;;;16.90;99.90;;;;;;4903805;29;20040;-89
2022/08/11 02:51:07;;;;;;;0.20;0.20;;;16.90;99.90;;;;;;4918826;29;20058;-90
2022/08/11 02:53:45;;;;;;;0.15;0.13;;;16.80;99.90;;;;;;4900058;29;20059;-90
2022/08/11 02:56:21;;;;;;;0.00;0.00;;;16.70;99.90;;;;;;4917761;29;20122;-89
2022/08/11 03:02:06;;;;;;;0.20;0.17;;;16.70;99.90;;;;;;4916790;29;20056;-89
2022/08/11 03:04:50;;;;;;;0.00;0.00;;;16.60;99.90;;;;;;4914186;29;20100;-89
2022/08/11 03:07:39;;;;;;;0.50;0.20;;;16.60;99.90;;;;;;4912994;29;20080;-89
2022/08/11 03:10:15;;;;;;;0.63;0.25;;;16.60;99.90;;;;;;4903486;29;20168;-89
2022/08/11 03:18:58;;;;;;;1.58;0.20;;;16.40;99.90;;;;;;4918519;29;20102;-89
2022/08/11 03:21:32;;;;;;;0.55;0.20;;;16.40;99.90;;;;;;4934545;29;20040;-88
2022/08/11 03:24:05;;;;;;;0.30;0.20;;;16.40;99.90;;;;;;4902004;29;20055;-90
2022/08/11 03:26:55;;;;;;;1.02;0.30;;;16.40;99.90;;;;;;4901371;29;20420;-89
2022/08/11 03:29:41;;;;;;;0.10;0.10;;;16.30;99.90;;;;;;4892331;29;20063;-89
2022/08/11 03:32:19;;;;;;;0.10;0.10;;;16.30;99.90;;;;;;4911262;29;20043;-90
2022/08/11 03:34:47;;;;;;;0.10;0.10;;;16.30;99.90;;;;;;4908003;29;20058;-89
2022/08/11 03:42:53;;;;;;;0.00;0.00;;;16.20;99.90;;;;;;4962577;28;20143;-86
2022/08/11 03:45:55;;;;;;;0.68;0.20;;;16.10;99.90;;;;;;4957394;28;20141;-85
2022/08/11 03:48:48;;;;;;;0.65;0.10;;;16.10;99.90;;;;;;4957172;28;20093;-85
2022/08/11 03:51:26;;;;;;;1.15;0.25;;;16.10;99.90;;;;;;4957449;28;20047;-85
2022/08/11 03:53:54;;;;;;;;;;;16.00;99.90;;;;;;4941945;28;20051;-85
2022/08/11 03:56:59;;;;;;;0.13;0.13;;;15.90;99.90;;;;;;4973212;28;19922;-86
2022/08/11 03:59:53;;;;;;;0.10;0.10;;;15.90;99.90;;;;;;4956712;28;20056;-86
2022/08/11 04:02:46;;;;;;;0.10;0.10;;;15.90;99.90;;;;;;4940489;28;20053;-85
2022/08/11 04:05:32;;;;;;;0.32;0.10;;;15.90;99.90;;;;;;4956498;28;20054;-85
2022/08/11 04:08:19;;;;;;;0.45;0.32;;;15.80;99.90;;;;;;4956718;28;20050;-85
2022/08/11 04:11:17;;;;;;;0.20;0.20;;;15.80;99.90;;;;;;4941425;28;20047;-85
2022/08/11 04:16:46;;;;;;;0.40;0.40;;;15.70;99.90;;;;;;4973072;28;20054;-85
2022/08/11 04:19:51;;;;;;;1.27;0.20;;;15.70;99.90;;;;;;4940376;28;20046;-86
2022/08/11 04:22:19;;;;;;;0.90;0.20;;;15.70;99.90;;;;;;4940432;28;20043;-85
2022/08/11 04:25:03;;;;;;;0.10;0.10;;;15.60;99.90;;;;;;4956867;28;20060;-85
2022/08/11 04:28:04;;;;;;;0.98;0.10;;;15.60;99.90;;;;;;4940757;28;20073;-85
2022/08/11 04:31:00;;;;;;;0.20;0.20;;;15.60;99.90;;;;;;4956048;28;20061;-85
2022/08/11 04:33:49;;;;;;;0.00;0.00;;;15.60;99.90;;;;;;4940519;28;20097;-85
2022/08/11 04:37:31;;;;;;;0.75;0.05;;;15.60;99.90;;;;;;4940253;28;20121;-85
2022/08/11 04:39:48;;;;;;;0.25;0.10;;;15.60;99.90;;;;;;4955829;28;20386;-86
2022/08/11 04:45:38;;;;;;;0.30;0.08;;;15.50;99.90;;;;;;4972257;28;20471;-85
2022/08/11 05:07:12;;;;;;;0.17;0.15;;;15.70;99.90;;;;;;4972517;28;20400;-85
2022/08/11 05:09:44;;;;;;;1.52;0.38;;;15.70;99.90;;;;;;4939967;28;20062;-85
2022/08/11 05:12:15;;;;;;;0.10;0.10;;;15.70;99.90;;;;;;4941261;28;20481;-85
2022/08/11 05:34:54;;;;;;;0.52;0.22;;;16.40;99.90;;;;;;4976517;28;20144;-84
2022/08/11 05:37:28;;;;;;;1.02;0.40;;;16.50;99.90;;;;;;4959308;28;20051;-89
2022/08/11 05:57:21;;;;;;;0.10;0.10;;;18.00;99.90;;;;;;4976423;28;20073;-86
2022/08/11 06:00:01;;;;;;;1.27;0.50;;;18.30;99.90;;;;;;4959296;28;20047;-88
2022/08/11 06:02:29;;;;;;;0.10;0.10;;;18.50;99.90;;;;;;4943311;28;20046;-86
2022/08/11 06:04:57;;;;;;;0.32;0.32;;;18.70;99.90;;;;;;4944011;28;20412;-86
2022/08/11 06:07:29;;;;;;;0.20;0.20;;;18.90;99.90;;;;;;4943332;28;20047;-86
2022/08/11 06:09:57;;;;;;;0.30;0.30;;;19.00;99.90;;;;;;4943943;28;20065;-87
2022/08/11 06:12:32;;;;;;;0.73;0.40;;;19.20;99.90;;;;;;4943389;28;20047;-85
2022/08/11 06:15:03;;;;;;;0.57;0.40;;;19.30;99.90;;;;;;4943618;28;20053;-86
2022/08/11 06:17:31;;;;;;;0.17;0.17;;;19.50;99.90;;;;;;4943614;28;20042;-84
2022/08/11 06:20:01;;;;;;;0.15;0.10;;;19.60;99.90;;;;;;4959604;28;20050;-84
2022/08/11 06:22:27;;;;;;;0.20;0.10;;;19.80;99.90;;;;;;4958661;28;20150;-84
2022/08/11 06:25:01;;;;;;;0.28;0.10;;;19.90;99.90;;;;;;4943259;28;20050;-87
2022/08/11 06:27:34;;;;;;;0.20;0.20;;;20.00;99.90;;;;;;4959305;28;20058;-87
2022/08/11 06:30:12;;;;;;;0.20;0.20;;;20.70;99.90;;;;;;4943871;28;20057;-86
2022/08/11 06:32:50;;;;;;;0.20;0.20;;;20.20;99.90;;;;;;4942987;28;20142;-85
2022/08/11 06:35:22;;;;;;;1.08;0.35;;;20.30;99.90;;;;;;4959162;28;20058;-85
2022/08/11 06:38:06;;;;;;;0.25;0.10;;;20.50;99.90;;;;;;4958792;28;20058;-85
2022/08/11 06:41:29;;;;;;;0.20;0.20;;;20.60;99.90;;;;;;4942899;28;20063;-90
2022/08/11 06:43:44;;;;;;;0.03;0.03;;;20.80;99.90;;;;;;4975080;28;20113;-85
2022/08/11 06:46:14;;;;;;;0.10;0.10;;;21.00;99.90;;;;;;4974879;28;20078;-82
2022/08/11 06:48:41;;;;;;;0.40;0.20;;;21.10;99.90;;;;;;4959530;28;20047;-85
2022/08/11 06:51:10;;;;;;;0.10;0.10;;;21.20;99.90;;;;;;4943613;28;20401;-84
2022/08/11 06:53:55;;;;;;;0.10;0.10;;;21.30;99.90;;;;;;4958946;28;20065;-85
2022/08/11 07:02:23;;;;;;;0.20;0.20;;;21.80;99.90;;;;;;4990803;28;20090;-86
2022/08/11 07:05:13;;;;;;;0.00;0.00;;;22.00;99.90;;;;;;4974309;28;20055;-85
2022/08/11 07:16:48;;;;;;;1.13;1.05;;;22.80;99.90;;;;;;4990706;28;20472;-85
2022/08/11 07:31:00;;;;;;;0.00;0.00;;;23.70;99.90;;;;;;4990414;28;20404;-85
2022/08/11 07:33:37;;;;;;;0.10;0.10;;;23.80;99.90;;;;;;4974531;28;20566;-86
2022/08/11 07:36:04;;;;;;;0.10;0.10;;;23.90;99.90;;;;;;4957648;28;20057;-86
2022/08/11 07:38:43;;;;;;;0.03;0.03;;;23.90;99.90;;;;;;4942137;28;20051;-85
2022/08/11 07:41:17;;;;;;;0.10;0.10;;;24.10;99.90;;;;;;4974003;28;20061;-85
2022/08/11 07:43:49;;;;;;;0.25;0.25;;;24.30;99.90;;;;;;4942073;28;20047;-86
2022/08/11 07:54:39;;;;;;;0.15;0.13;;;24.50;99.90;;;;;;4989828;28;20484;-87
2022/08/11 08:19:19;;;;;;;0.00;0.00;;;25.60;99.90;;;;;;4989800;28;20051;-86
2022/08/11 08:21:47;;;;;;;0.13;0.00;;;25.70;99.90;;;;;;4956944;28;20133;-86
2022/08/11 08:24:14;;;;;;;0.10;0.10;;;25.80;99.90;;;;;;4941628;28;20092;-86
2022/08/11 08:26:59;;;;;;;0.00;0.00;;;26.00;99.90;;;;;;4957269;28;20047;-88
2022/08/11 08:32:15;;;;;;;0.00;0.00;;;26.30;99.90;;;;;;4989864;28;20055;-86
2022/08/11 08:34:43;;;;;;;0.00;0.00;;;26.40;99.90;;;;;;4956928;28;20047;-86
2022/08/11 08:37:09;;;;;;;0.10;0.10;;;26.60;99.90;;;;;;4973394;28;20042;-86
2022/08/11 08:39:38;;;;;;;;;;;26.80;99.90;;;;;;4958824;28;20073;-86
2022/08/11 08:42:18;;;;;;;0.00;0.00;;;26.70;99.90;;;;;;4959250;28;19922;-86
2022/08/11 08:44:49;;;;;;;0.13;0.10;;;26.90;99.90;;;;;;4972960;28;20062;-88
2022/08/11 08:47:18;;;;;;;0.00;0.00;;;26.90;99.90;;;;;;4957841;28;20078;-87
2022/08/11 08:50:06;;;;;;;0.10;0.10;;;27.00;99.90;;;;;;4957665;28;20452;-86
2022/08/11 08:52:43;;;;;;;0.20;0.20;;;27.00;99.90;;;;;;4973233;28;20050;-86
2022/08/11 08:55:15;;;;;;;0.08;0.08;;;27.00;99.90;;;;;;4972740;28;20481;-86
2022/08/11 08:57:44;;;;;;;0.17;0.17;;;27.20;99.90;;;;;;4957853;28;20070;-86
2022/08/11 09:00:14;;;;;;;0.00;0.00;;;27.00;99.90;;;;;;4974416;28;20081;-86
2022/08/11 09:02:42;;;;;;;0.00;0.00;;;27.20;99.90;;;;;;4989314;28;20492;-86
2022/08/11 09:05:08;;;;;;;0.00;0.00;;;27.30;99.90;;;;;;4957679;28;20489;-86
2022/08/11 09:07:35;;;;;;;0.00;0.00;;;27.30;99.90;;;;;;4957900;28;20089;-86
2022/08/11 09:10:02;;;;;;;0.30;0.10;;;27.20;99.20;;;;;;4957822;28;20497;-86
2022/08/11 09:12:30;;;;;;;0.10;0.10;;;27.20;99.20;;;;;;4957453;28;20436;-86
2022/08/11 09:15:04;;;;;;;0.00;0.00;;;27.30;99.60;;;;;;4957800;28;20435;-87
2022/08/11 09:17:35;;;;;;;0.55;0.10;;;27.50;99.10;;;;;;4957822;28;20051;-86
2022/08/11 09:20:07;;;;;;;0.13;0.10;;;27.50;97.90;;;;;;4957212;28;20058;-86
2022/08/11 09:28:13;;;;;;;0.00;0.00;;;27.40;98.40;;;;;;4989129;28;20105;-86
2022/08/11 09:30:44;;;;;;;0.03;0.03;;;27.40;96.10;;;;;;4957665;28;20043;-86
2022/08/11 09:33:15;;;;;;;0.10;0.10;;;26.80;95.80;;;;;;4959148;28;20335;-86
2022/08/11 09:35:45;;;;;;;0.00;0.00;;;27.40;96.40;;;;;;4973417;28;20083;-86
2022/08/11 09:41:06;;;;;;;0.10;0.10;;;27.60;95.10;;;;;;4988468;28;20058;-87
2022/08/11 09:46:27;;;;;;;0.17;0.17;;;27.60;94.20;;;;;;4990216;28;20047;-87
2022/08/11 09:48:57;;;;;;;0.10;0.10;;;27.70;94.70;;;;;;4956574;28;20050;-89
2022/08/11 09:51:24;;;;;;;0.10;0.08;;;27.80;94.50;;;;;;4957510;28;20043;-87
2022/08/11 09:54:07;;;;;;;0.30;0.10;;;27.90;94.20;;;;;;4958761;28;20047;-87
2022/08/11 09:59:22;;;;;;;0.00;0.00;;;27.90;94.50;;;;;;4962020;28;20055;-86
2022/08/11 10:02:01;;;;;;;0.30;0.10;;;28.00;94.20;;;;;;4959568;28;20108;-87
2022/08/11 10:04:34;;;;;;;0.08;0.08;;;28.10;92.90;;;;;;4960791;28;20051;-87
2022/08/11 10:07:05;;;;;;;0.00;0.00;;;28.20;93.00;;;;;;4959734;28;20145;-87
2022/08/11 10:09:43;;;;;;;0.50;0.10;;;28.20;92.80;;;;;;4976588;28;20160;-87
2022/08/11 10:12:26;;;;;;;0.03;0.03;;;28.20;91.80;;;;;;4960057;28;20047;-86
2022/08/11 10:18:40;;;;;;;;;;;28.30;92.70;;;;;;4994869;28;20141;-86
2022/08/11 10:20:37;;;;;;;0.10;0.10;;;28.30;86.40;;;;;;4978917;28;19929;-91
2022/08/11 10:28:37;;;;;;;0.47;0.20;;;28.40;92.10;;;;;;4992733;28;20050;-87
2022/08/11 10:34:02;;;;;;;0.15;0.10;;;28.70;91.40;;;;;;4964081;28;20059;-87
2022/08/11 10:36:45;;;;;;;0.43;0.38;;;28.80;91.70;;;;;;4977413;28;20046;-88
2022/08/11 10:39:17;;;;;;;0.17;0.17;;;28.80;89.10;;;;;;4961585;28;20066;-88
2022/08/11 10:44:37;;;;;;;0.10;0.10;;;28.80;89.40;;;;;;4993748;28;20496;-88
2022/08/11 10:51:11;;;;;;;0.03;0.03;;;28.80;89.10;;;;;;4992256;28;20047;-90
2022/08/11 11:00:59;;;;;;;0.05;0.05;;;28.90;87.50;;;;;;4991228;28;20074;-88
2022/08/11 11:03:26;;;;;;;0.20;0.10;;;28.90;87.50;;;;;;4958902;28;20125;-88
2022/08/11 11:06:00;;;;;;;0.10;0.10;;;28.90;87.70;;;;;;4958444;28;20058;-88
2022/08/11 11:17:54;;;;;;;0.10;0.10;;;29.10;86.20;;;;;;4989755;28;20070;-88
2022/08/11 11:20:00;;;;;;;;;;;29.30;83.20;;;;;;4993941;28;20074;-95
2022/08/11 11:22:38;;;;;;;0.00;0.00;;;29.50;77.90;;;;;;4958126;28;20635;-89
2022/08/11 11:25:17;;;;;;;0.47;0.20;;;29.40;83.20;;;;;;4958651;28;20047;-89
2022/08/11 11:27:55;;;;;;;0.10;0.10;;;29.50;81.80;;;;;;4958653;28;20050;-89
2022/08/11 11:30:26;;;;;;;0.17;0.17;;;29.50;82.10;;;;;;4958201;28;20086;-88
2022/08/11 11:33:16;;;;;;;0.10;0.10;;;29.40;81.50;;;;;;4958512;28;20457;-88
2022/08/11 11:36:09;;;;;;;0.00;0.00;;;29.50;74.50;;;;;;4957497;28;20047;-87
2022/08/11 11:38:35;;;;;;;0.00;0.00;;;29.60;76.50;;;;;;4974554;28;20086;-86
2022/08/11 11:43:46;;;;;;;0.00;0.00;;;29.70;81.40;;;;;;4960817;28;20058;-85
2022/08/11 11:46:13;;;;;;;0.00;0.00;;;29.80;79.20;;;;;;4973329;28;20054;-86
2022/08/11 11:48:40;;;;;;;0.00;0.00;;;29.80;77.90;;;;;;4973734;28;20551;-86
2022/08/11 11:51:06;;;;;;;0.00;0.00;;;29.90;77.90;;;;;;4974024;28;20055;-85
2022/08/11 11:53:33;;;;;;;0.00;0.00;;;29.90;77.60;;;;;;4973618;28;20047;-86
2022/08/11 11:56:00;;;;;;;0.00;0.00;;;30.00;78.10;;;;;;4942621;28;20093;-87
2022/08/11 12:01:16;;;;;;;0.00;0.00;;;30.20;76.40;;;;;;4959938;28;20047;-87
2022/08/11 12:03:48;;;;;;;0.10;0.10;;;30.20;77.80;;;;;;4942471;28;20105;-85
2022/08/11 12:06:15;;;;;;;0.00;0.00;;;30.30;75.50;;;;;;4973373;28;20393;-86
2022/08/11 12:08:42;;;;;;;0.10;0.10;;;30.30;74.70;;;;;;4957822;28;20054;-85
2022/08/11 12:13:56;;;;;;;;;;;30.50;75.90;;;;;;4990428;28;20086;-85
2022/08/11 12:16:23;;;;;;;0.03;0.03;;;30.60;71.70;;;;;;4956677;28;20012;-86
2022/08/11 12:18:52;;;;;;;0.20;0.10;;;30.70;75.40;;;;;;4957131;28;20110;-86
2022/08/11 12:21:18;;;;;;;0.10;0.00;;;30.80;75.50;;;;;;4972148;28;20098;-87
2022/08/11 12:29:19;;;;;;;0.22;0.10;;;30.90;75.40;;;;;;4959346;28;20053;-86
2022/08/11 12:31:46;;;;;;;0.10;0.10;;;31.00;73.70;;;;;;4972740;28;20105;-86
2022/08/11 12:34:14;;;;;;;0.00;0.00;;;31.00;74.00;;;;;;4973119;28;20551;-87
2022/08/11 12:36:50;;;;;;;0.05;0.05;;;31.00;70.90;;;;;;4972446;28;20047;-86
2022/08/11 12:53:36;;;;;;;0.30;0.10;;;31.20;70.30;;;;;;4988775;28;20046;-85
2022/08/11 12:58:50;;;;;;;0.08;0.08;;;31.40;70.60;;;;;;4990122;28;20145;-85
2022/08/11 13:06:46;;;;;;;0.08;0.08;;;31.40;66.90;;;;;;4990073;28;20497;-85
2022/08/11 13:09:13;;;;;;;0.00;0.00;;;31.50;68.50;;;;;;4957253;28;20054;-85
2022/08/11 13:14:28;;;;;;;0.00;0.00;;;31.60;68.70;;;;;;4958627;28;20406;-88
2022/08/11 13:19:42;;;;;;;0.17;0.10;;;31.70;68.50;;;;;;4958748;28;20090;-85
2022/08/11 13:22:08;;;;;;;0.00;0.00;;;31.80;66.30;;;;;;4974380;28;20068;-85
2022/08/11 13:24:35;;;;;;;0.00;0.00;;;31.80;61.10;;;;;;4958383;28;20047;-85
2022/08/11 13:27:02;;;;;;;0.10;0.10;;;31.80;66.40;;;;;;4975835;28;20437;-86
2022/08/11 13:29:28;;;;;;;0.00;0.00;;;31.70;67.60;;;;;;4973557;28;20421;-87
2022/08/11 13:31:58;;;;;;;0.30;0.30;;;31.80;67.70;;;;;;4972403;28;20055;-86
2022/08/11 13:34:26;;;;;;;0.00;0.00;;;31.80;63.30;;;;;;4991755;28;20493;-87
2022/08/11 13:36:59;;;;;;;0.08;0.05;;;31.80;65.40;;;;;;4959990;28;20086;-86
2022/08/11 13:39:29;;;;;;;0.10;0.10;;;31.90;62.50;;;;;;4960351;28;20137;-85
2022/08/11 13:41:58;;;;;;;0.10;0.10;;;31.80;64.90;;;;;;4975913;28;20139;-86
2022/08/11 13:44:27;;;;;;;0.20;0.20;;;31.80;63.90;;;;;;4960543;28;20073;-86
2022/08/11 13:47:01;;;;;;;0.10;0.10;;;31.90;65.80;;;;;;4976563;28;20054;-87
2022/08/11 13:49:27;;;;;;;0.10;0.10;;;32.10;64.80;;;;;;4961803;28;20057;-88
2022/08/11 13:51:54;;;;;;;0.00;0.00;;;32.10;65.50;;;;;;4960180;28;20062;-85
2022/08/11 13:54:23;;;;;;;0.05;0.05;;;32.20;64.90;;;;;;4959131;28;20047;-86
2022/08/11 13:56:53;;;;;;;0.00;0.00;;;32.20;61.40;;;;;;4975098;28;20457;-85
2022/08/11 13:59:21;;;;;;;0.03;0.03;;;32.20;64.70;;;;;;4959629;28;20194;-85
2022/08/11 14:01:51;;;;;;;0.00;0.00;;;32.10;64.80;;;;;;4976282;28;20489;-85
2022/08/11 14:04:54;;;;;;;0.10;0.10;;;32.10;64.00;;;;;;4975223;28;20054;-85
2022/08/11 14:07:23;;;;;;;0.10;0.10;;;32.10;61.30;;;;;;4965119;28;20054;-84
2022/08/11 14:09:55;;;;;;;0.03;0.03;;;32.10;64.60;;;;;;4960252;28;20047;-87
2022/08/11 14:15:33;;;;;;;0.00;0.00;;;32.10;62.80;;;;;;4991533;28;20493;-87
2022/08/11 14:18:27;;;;;;;0.00;0.00;;;32.20;62.60;;;;;;4959690;28;20061;-86
2022/08/11 14:23:49;;;;;;;0.10;0.10;;;32.30;62.60;;;;;;4992953;28;20042;-86
2022/08/11 14:26:22;;;;;;;0.00;0.00;;;32.40;63.10;;;;;;4976385;28;20043;-86
2022/08/11 14:28:53;;;;;;;0.00;0.00;;;32.50;62.00;;;;;;4991441;28;20050;-87
2022/08/11 14:31:22;;;;;;;0.15;0.15;;;32.50;63.70;;;;;;4959538;28;20559;-86
2022/08/11 14:33:49;;;;;;;0.00;0.00;;;32.40;63.70;;;;;;4959325;28;20446;-87
2022/08/11 14:36:15;;;;;;;0.00;0.00;;;32.40;63.60;;;;;;4975405;28;20401;-86
2022/08/11 14:38:41;;;;;;;0.43;0.03;;;32.40;63.80;;;;;;4974917;28;20133;-87
2022/08/11 14:49:27;;;;;;;0.00;0.00;;;32.50;63.30;;;;;;4991503;28;20405;-86
2022/08/11 14:51:54;;;;;;;0.00;0.00;;;32.50;63.30;;;;;;4942474;28;20055;-86
2022/08/11 14:57:15;;;;;;;0.00;0.00;;;32.50;61.30;;;;;;4991268;28;20129;-86
2022/08/11 14:59:43;;;;;;;0.10;0.10;;;32.50;62.80;;;;;;4974393;28;20050;-87
2022/08/11 15:04:57;;;;;;;0.00;0.00;;;32.70;62.10;;;;;;4990761;28;20051;-86
2022/08/11 15:07:28;;;;;;;0.10;0.10;;;32.70;63.40;;;;;;4974676;28;20050;-87
2022/08/11 15:10:06;;;;;;;0.10;0.10;;;32.70;63.50;;;;;;4959235;28;20054;-87
2022/08/11 15:12:34;;;;;;;0.08;0.08;;;32.70;58.70;;;;;;4958675;28;20058;-87
2022/08/11 15:17:47;;;;;;;0.00;0.00;;;32.60;62.50;;;;;;4990525;28;20058;-86
2022/08/11 15:25:54;;;;;;;0.20;0.20;;;32.50;63.60;;;;;;4990408;28;20050;-87
2022/08/11 15:39:34;;;;;;;0.00;0.00;;;32.50;62.80;;;;;;4990471;28;20050;-87
2022/08/11 15:47:56;;;;;;;0.20;0.10;;;32.00;63.00;;;;;;4989894;28;20059;-87
2022/08/11 15:50:29;;;;;;;0.45;0.00;;;31.80;62.50;;;;;;4990088;28;20431;-87
2022/08/11 15:53:02;;;;;;;0.10;0.00;;;31.80;64.10;;;;;;4973598;28;20050;-87
2022/08/11 15:55:30;;;;;;;0.20;0.10;;;31.60;63.20;;;;;;4973633;28;20545;-86
2022/08/11 16:04:13;;;;;;;0.08;0.08;;;31.30;64.20;;;;;;4989858;28;20054;-86
2022/08/11 16:06:50;;;;;;;0.10;0.10;;;31.20;64.10;;;;;;4957719;28;20057;-86
2022/08/11 16:09:23;;;;;;;0.05;0.05;;;31.80;64.30;;;;;;4973538;28;20063;-86
2022/08/11 16:11:51;;;;;;;0.10;0.10;;;31.10;64.40;;;;;;4957207;28;20405;-87
2022/08/11 16:17:04;;;;;;;0.22;0.10;;;31.00;64.70;;;;;;4946185;28;20054;-86
2022/08/11 16:19:34;;;;;;;0.05;0.03;;;30.80;64.00;;;;;;4973493;28;20047;-86
2022/08/11 16:22:02;;;;;;;0.00;0.00;;;30.70;64.60;;;;;;4972974;28;20069;-87
2022/08/11 16:24:29;;;;;;;0.10;0.10;;;30.60;64.80;;;;;;4957312;28;20133;-86
2022/08/11 16:26:56;;;;;;;0.20;0.20;;;30.50;65.10;;;;;;4956633;28;20058;-86
2022/08/11 16:29:24;;;;;;;0.15;0.10;;;30.50;65.40;;;;;;4973350;28;20054;-86
2022/08/11 16:40:10;;;;;;;0.30;0.20;;;30.30;65.50;;;;;;4959071;28;20050;-86
2022/08/11 16:48:07;;;;;;;0.20;0.20;;;30.20;65.90;;;;;;4959137;28;20050;-86
2022/08/11 16:50:34;;;;;;;0.10;0.10;;;30.10;65.90;;;;;;4974049;28;20112;-86
2022/08/11 16:53:01;;;;;;;0.10;0.10;;;30.00;66.80;;;;;;4972699;28;20085;-86
2022/08/11 16:55:32;;;;;;;0.00;0.00;;;30.00;66.20;;;;;;4957069;28;20065;-86
2022/08/11 17:00:44;;;;;;;0.10;0.10;;;29.80;66.10;;;;;;4959410;28;20145;-86
2022/08/11 17:14:50;;;;;;;0.00;0.00;;;29.30;68.10;;;;;;4989249;28;20059;-86
2022/08/11 17:17:24;;;;;;;0.17;0.10;;;29.20;68.90;;;;;;4972119;28;20055;-86
2022/08/11 17:19:54;;;;;;;0.47;0.20;;;29.10;69.00;;;;;;4973745;28;20101;-86
2022/08/11 17:25:08;;;;;;;0.00;0.00;;;28.90;69.50;;;;;;4988598;28;20062;-86
2022/08/11 17:27:35;;;;;;;0.17;0.10;;;28.80;70.10;;;;;;4972632;28;20046;-86
2022/08/11 17:30:05;;;;;;;0.08;0.08;;;28.60;70.30;;;;;;4956124;28;20113;-86
2022/08/11 17:35:37;;;;;;;0.10;0.10;;;28.40;71.50;;;;;;4988849;28;20055;-86
2022/08/11 17:38:16;;;;;;;0.22;0.17;;;28.40;71.60;;;;;;4972185;28;20450;-86
2022/08/11 17:49:07;;;;;;;0.00;0.00;;;28.10;72.50;;;;;;4988341;28;20058;-86
2022/08/11 17:59:51;;;;;;;0.00;0.00;;;27.70;73.90;;;;;;4988612;28;20053;-86
2022/08/11 18:05:12;;;;;;;0.10;0.10;;;27.60;75.00;;;;;;4951843;28;20145;-86
